Česky Dansk Deutsch English Español Suomi Français Magyar Italiano Nederlands norsk Polski Português svenska Türkçe

 

Het Weer

Katima Mulilo (Namibia)

16:00, 10 augustus 2016 (GMT)

NWNNE
WE
SWSSE
Home            
Katima Mulilo Sesheke Kasane Livingstone Victoria Falls Senanga Shakawe Maun Mongu Hwange National Park Choma Kaoma Binga Sua-Pan Letlhakane Kabompo Rundu Zambezi Kasempa Gokwe Kariba Lusaka Internationalairport Ghanzi

Om een weerknop op uw website of weblog te plaatsen, copieer onderstaande code en plak die in uw pagina. In het eerste vakje staat HTML-code, in het tweede vakje UBB-code.


Add to Google

Details

Wind speed:2 bf, 4 kn, 2.1 m/s, 4.6 miles/h, 7.4 km/h
Wind direction:ENE, 060°
Visibility:Greater than 10000 m, 10 km, 32800 ft, 6.2 miles
Clouds:CAVOC
Temperature:26°C, 79°F
Gefühlte Temperatur:26°C, 79°F
Dew-point:9°C, 48°F
Atmospheric pressure:1021 hPa, 765.8 mmHg, 30.15 inHg, 1.008 atm
Relative humidity:34.2 %
METAR:FYKM 101600Z 06004KT CAVOK 26/09 Q1021

Snelkoppelingen

Actuele weersinformatie van de hele wereld. Voeg locaties toe met het plus (+) symbool. Deze snelkoppelingen kunnen worden toegevoegd aan Google.

Lid van de Technetium groep

website free tracking
StatCounter NetStat W3C Validator

21-10-2020 11:43:16
astro.technetium.be money.technetium.be phote.technetium.be tafeltennistafel.technetium.be www.ligfiets.net